METAR Data
IDs: Format: Raw Decoded Include TAF

Data at: 0707 UTC 01 Aug 2021

ESKN 010650Z 25011KT 9999 FEW018 BKN044 17/13 Q0997